Latest Weather Observations for Wattamolla

IDN60801

Issued at 3:02 pm EST Sunday 25 June 2017 (issued every 30 minutes, with the page automatically refreshed every 10 minutes)

About weather observations | Map of weather stations | Latest weather observations for NSW | Other Formats
Station Details ID: 066208 Name: WATTAMOLLA AWS Lat: -34.14 Lon: 151.12 Height: 44.0 m
Data from the previous 72 hours. | See also: Recent months for locations in New South Wales
Date/Time
EST
Temp
°C
App
Temp
°C
Dew
Point
°C
Rel
Hum
%
Delta-T
°C
Wind Press
QNH
hPa
Press
MSL
hPa
Rain since
9am
mm
Dir  Spd
km/h
Gust
km/h
Spd
kts
Gust
kts
25/03:00pm - - - - - WSW 19 32 10 17 - - -
25/02:30pm - - - - - W 24 32 13 17 - - -
25/02:00pm - - - - - WSW 19 28 10 15 - - -
25/01:30pm - - - - - W 22 33 12 18 - - -
25/01:00pm - - - - - W 19 30 10 16 - - -
25/12:30pm - - - - - W 19 32 10 17 - - -
25/12:00pm - - - - - WNW 20 33 11 18 - - -
25/11:30am - - - - - W 20 37 11 20 - - -
25/11:00am - - - - - WNW 19 33 10 18 - - -
25/10:30am - - - - - WNW 20 30 11 16 - - -
25/10:00am - - - - - NW 17 28 9 15 - - -
25/09:30am - - - - - WNW 11 19 6 10 - - -
25/09:00am - - - - - NNW 9 17 5 9 - - -
25/08:30am - - - - - NW 13 19 7 10 - - -
25/08:00am - - - - - WNW 17 20 9 11 - - -
25/07:30am - - - - - WNW 19 20 10 11 - - -
25/07:00am - - - - - NW 19 22 10 12 - - -
25/06:30am - - - - - WNW 13 19 7 10 - - -
25/06:00am - - - - - W 20 26 11 14 - - -
25/05:30am - - - - - W 17 20 9 11 - - -
25/05:00am - - - - - W 22 28 12 15 - - -
25/04:30am - - - - - W 19 22 10 12 - - -
25/04:00am - - - - - W 17 20 9 11 - - -
25/03:30am - - - - - W 19 22 10 12 - - -
25/03:00am - - - - - W 17 19 9 10 - - -
25/02:30am - - - - - W 13 20 7 11 - - -
25/02:00am - - - - - W 13 19 7 10 - - -
25/01:30am - - - - - W 13 17 7 9 - - -
25/01:00am - - - - - SW 17 19 9 10 - - -
25/12:30am - - - - - SW 15 19 8 10 - - -
25/12:00am - - - - - WSW 17 17 9 9 - - -
 
Date/Time
EST
Temp
°C
App
Temp
°C
Dew
Point
°C
Rel
Hum
%
Delta-T
°C
Wind Press
QNH
hPa
Press
MSL
hPa
Rain since
9am
mm
Dir  Spd
km/h
Gust
km/h
Spd
kts
Gust
kts
24/11:30pm - - - - - WSW 17 19 9 10 - - -
24/11:00pm - - - - - WSW 17 19 9 10 - - -
24/10:30pm - - - - - WSW 17 19 9 10 - - -
24/10:00pm - - - - - WSW 17 19 9 10 - - -
24/09:30pm - - - - - W 17 19 9 10 - - -
24/09:00pm - - - - - W 17 22 9 12 - - -
24/08:30pm - - - - - W 19 26 10 14 - - -
24/08:00pm - - - - - W 20 28 11 15 - - -
24/07:30pm - - - - - WSW 20 24 11 13 - - -
24/07:00pm - - - - - W 19 22 10 12 - - -
24/06:30pm - - - - - W 20 26 11 14 - - -
24/06:00pm - - - - - W 22 26 12 14 - - -
24/05:30pm - - - - - W 17 20 9 11 - - -
24/05:00pm - - - - - W 17 20 9 11 - - -
24/04:30pm - - - - - W 15 17 8 9 - - -
24/04:00pm - - - - - WSW 11 15 6 8 - - -
24/03:30pm - - - - - WSW 9 15 5 8 - - -
24/03:00pm - - - - - W 13 19 7 10 - - -
24/02:30pm - - - - - WSW 19 30 10 16 - - -
24/02:00pm - - - - - SW 13 20 7 11 - - -
24/01:30pm - - - - - WSW 15 28 8 15 - - -
24/01:00pm - - - - - WSW 17 26 9 14 - - -
24/12:30pm - - - - - WNW 20 32 11 17 - - -
24/12:00pm - - - - - WNW 17 26 9 14 - - -
24/11:30am - - - - - W 17 28 9 15 - - -
24/11:00am - - - - - W 17 26 9 14 - - -
24/10:30am - - - - - WSW 17 32 9 17 - - -
24/10:00am - - - - - WNW 22 37 12 20 - - -
24/09:36am - - - - - WNW 30 50 16 27 - - -
24/09:30am - - - - - WNW 26 41 14 22 - - -
24/09:00am - - - - - NW 15 30 8 16 - - -
24/08:30am - - - - - W 15 20 8 11 - - -
24/08:00am - - - - - SW 7 11 4 6 - - -
24/07:30am - - - - - W 20 33 11 18 - - -
24/07:00am - - - - - W 24 37 13 20 - - -
24/06:32am - - - - - W 32 50 17 27 - - -
24/06:30am - - - - - W 33 50 18 27 - - -
24/06:20am - - - - - W 32 50 17 27 - - -
24/06:00am - - - - - WNW 33 48 18 26 - - -
24/05:32am - - - - - WNW 33 52 18 28 - - -
24/05:30am - - - - - WNW 35 52 19 28 - - -
24/05:00am - - - - - WNW 35 54 19 29 - - -
24/04:40am - - - - - WNW 33 52 18 28 - - -
24/04:30am - - - - - WNW 35 50 19 27 - - -
24/04:00am - - - - - WNW 33 54 18 29 - - -
24/03:30am - - - - - WNW 37 56 20 30 - - -
24/03:06am - - - - - WNW 33 54 18 29 - - -
24/03:00am - - - - - W 32 48 17 26 - - -
24/02:37am - - - - - WNW 32 52 17 28 - - -
24/02:30am - - - - - WNW 30 43 16 23 - - -
24/02:00am - - - - - WNW 26 37 14 20 - - -
24/01:30am - - - - - NW 19 22 10 12 - - -
24/01:00am - - - - - WNW 17 22 9 12 - - -
24/12:30am - - - - - WNW 17 22 9 12 - - -
24/12:00am - - - - - WNW 6 11 3 6 - - -
 
Date/Time
EST
Temp
°C
App
Temp
°C
Dew
Point
°C
Rel
Hum
%
Delta-T
°C
Wind Press
QNH
hPa
Press
MSL
hPa
Rain since
9am
mm
Dir  Spd
km/h
Gust
km/h
Spd
kts
Gust
kts
23/11:30pm - - - - - W 9 13 5 7 - - -
23/11:00pm - - - - - WNW 17 20 9 11 - - -
23/10:30pm - - - - - WNW 17 30 9 16 - - -
23/10:00pm - - - - - WNW 20 28 11 15 - - -
23/09:30pm - - - - - WNW 20 28 11 15 - - -
23/09:00pm - - - - - W 20 28 11 15 - - -
23/08:30pm - - - - - W 20 26 11 14 - - -
23/08:00pm - - - - - WNW 19 26 10 14 - - -
23/07:30pm - - - - - WNW 19 24 10 13 - - -
23/07:00pm - - - - - NW 20 26 11 14 - - -
23/06:30pm - - - - - WNW 20 22 11 12 - - -
23/06:00pm - - - - - NW 22 26 12 14 - - -
23/05:30pm - - - - - NW 22 26 12 14 - - -
23/05:00pm - - - - - NW 22 28 12 15 - - -
23/04:30pm - - - - - NNW 17 24 9 13 - - -
23/04:00pm - - - - - NNW 13 17 7 9 - - -
23/03:30pm - - - - - N 11 15 6 8 - - -
23/03:00pm - - - - - N 11 15 6 8 - - -
23/02:30pm - - - - - NW 13 19 7 10 - - -
23/02:00pm - - - - - NNW 9 13 5 7 - - -
23/01:30pm - - - - - N 13 19 7 10 - - -
23/01:00pm - - - - - NNW 11 17 6 9 - - -
23/12:30pm - - - - - NNW 13 20 7 11 - - -
23/12:00pm - - - - - NW 15 22 8 12 - - -
23/11:30am - - - - - NW 17 24 9 13 - - -
23/11:00am - - - - - NNW 13 19 7 10 - - -
23/10:30am - - - - - NW 15 20 8 11 - - -
23/10:00am - - - - - NW 17 24 9 13 - - -
23/09:30am - - - - - NNW 11 15 6 8 - - -
23/09:00am - - - - - WNW 15 20 8 11 - - -
23/08:30am - - - - - NW 15 20 8 11 - - -
23/08:00am - - - - - NW 17 24 9 13 - - -
23/07:30am - - - - - NW 19 24 10 13 - - -
23/07:00am - - - - - WNW 17 19 9 10 - - -
23/06:30am - - - - - NW 17 19 9 10 - - -
23/06:00am - - - - - NW 15 17 8 9 - - -
23/05:30am - - - - - WNW 13 17 7 9 - - -
23/05:00am - - - - - WNW 13 15 7 8 - - -
23/04:30am - - - - - NW 15 19 8 10 - - -
23/04:00am - - - - - WNW 13 15 7 8 - - -
23/03:30am - - - - - W 13 19 7 10 - - -
23/03:00am - - - - - W 11 17 6 9 - - -
23/02:30am - - - - - NW 17 22 9 12 - - -
23/02:00am - - - - - NW 20 26 11 14 - - -
23/01:30am - - - - - NW 15 19 8 10 - - -
23/01:00am - - - - - NW 15 19 8 10 - - -
23/12:30am - - - - - NNW 15 19 8 10 - - -
23/12:00am - - - - - NNW 17 19 9 10 - - -
 
Date/Time
EST
Temp
°C
App
Temp
°C
Dew
Point
°C
Rel
Hum
%
Delta-T
°C
Wind Press
QNH
hPa
Press
MSL
hPa
Rain since
9am
mm
Dir  Spd
km/h
Gust
km/h
Spd
kts
Gust
kts
22/11:30pm - - - - - NNW 13 17 7 9 - - -
22/11:00pm - - - - - NW 17 19 9 10 - - -
22/10:30pm - - - - - NW 17 19 9 10 - - -
22/10:00pm - - - - - NW 17 17 9 9 - - -
22/09:30pm - - - - - NW 17 17 9 9 - - -
22/09:00pm - - - - - NW 17 17 9 9 - - -
22/08:30pm - - - - - NW 13 15 7 8 - - -
22/08:00pm - - - - - NW 15 15 8 8 - - -
22/07:30pm - - - - - NW 13 15 7 8 - - -
22/07:00pm - - - - - NW 15 17 8 9 - - -
22/06:30pm - - - - - NW 11 13 6 7 - - -
22/06:00pm - - - - - NNW 7 9 4 5 - - -
22/05:30pm - - - - - NW 9 13 5 7 - - -
22/05:00pm - - - - - NW 4 7 2 4 - - -
22/04:30pm - - - - - CALM 0 0 0 0 - - -
22/04:00pm - - - - - NE 2 9 1 5 - - -
22/03:30pm - - - - - SE 9 11 5 6 - - -

Other Formats:

Comma delimited format used in spreadsheet applications
http://www.bom.gov.au/fwo/IDN60801/IDN60801.95752.axf

JavaScript Object Notation format (JSON) in row-major order
http://www.bom.gov.au/fwo/IDN60801/IDN60801.95752.json